Time;durP1;ratioP1;P1;durP2;ratioP2;P2;SDS_P1;SDS_P2;PMS_P1;PMS_P2;Temp;Humidity;BMP_temperature;BMP_pressure;BME280_temperature;BME280_humidity;BME280_pressure;Samples;Min_cycle;Max_cycle;Signal;HPM_P1;HPM_P2
2021/12/18 00:02:39;;;;;;;5.72;2.10;;;;;;;3.24;81.51;101945.50;3401163;78;20960;-76
2021/12/18 00:07:34;;;;;;;6.08;1.60;;;;;;;3.26;81.57;101947.77;3467820;78;21457;-77
2021/12/18 00:12:26;;;;;;;3.70;1.98;;;;;;;3.23;81.50;101948.84;3531823;78;21274;-77
2021/12/18 00:17:17;;;;;;;4.85;1.90;;;;;;;3.22;81.34;101963.78;3515672;78;20991;-77
2021/12/18 00:22:09;;;;;;;6.05;1.90;;;;;;;3.22;81.51;101953.50;3528991;78;20920;-76
2021/12/18 00:27:01;;;;;;;7.05;2.02;;;;;;;3.24;81.47;101940.36;3474574;79;21476;-76
2021/12/18 00:31:52;;;;;;;4.97;2.00;;;;;;;3.26;81.56;101938.77;3440748;80;20918;-77
2021/12/18 00:36:43;;;;;;;5.97;2.15;;;;;;;3.28;81.54;101951.33;3451583;80;21071;-77
2021/12/18 00:41:48;;;;;;;5.62;2.05;;;;;;;3.29;81.43;101963.41;3396418;82;20992;-76
2021/12/18 00:46:34;;;;;;;6.30;2.70;;;;;;;3.30;81.45;101967.73;3402425;81;21003;-76
2021/12/18 00:51:26;;;;;;;7.80;2.50;;;;;;;3.32;81.46;101983.27;3427807;81;21301;-76
2021/12/18 00:56:17;;;;;;;4.45;1.65;;;;;;;3.33;81.41;101991.48;3399637;81;20999;-77
2021/12/18 01:01:10;;;;;;;7.75;2.40;;;;;;;3.33;81.31;102009.08;3366693;81;22096;-77
2021/12/18 01:06:02;;;;;;;6.22;2.05;;;;;;;3.34;81.29;102003.53;3350017;81;20976;-77
2021/12/18 01:16:14;;;;;;;6.08;2.42;;;;;;;3.34;81.36;101999.28;3407467;82;21000;-76
2021/12/18 01:26:08;;;;;;;5.87;2.30;;;;;;;3.36;81.27;101996.44;3420011;81;20955;-77
2021/12/18 01:31:01;;;;;;;8.63;3.00;;;;;;;3.35;81.31;101989.50;3439578;81;21977;-77
2021/12/18 01:35:56;;;;;;;6.97;3.00;;;;;;;3.36;81.27;101982.30;3389140;81;20972;-76
2021/12/18 01:40:47;;;;;;;9.35;2.22;;;;;;;3.37;81.28;101980.21;3393851;81;20971;-76
2021/12/18 01:46:03;;;;;;;6.50;3.20;;;;;;;3.36;81.22;101973.30;3355863;81;20975;-76
2021/12/18 01:55:51;;;;;;;7.33;2.87;;;;;;;3.34;81.35;101982.56;3381569;81;21247;-76
2021/12/18 02:00:43;;;;;;;7.10;3.12;;;;;;;3.31;81.22;101984.95;3418944;81;20961;-76
2021/12/18 02:05:34;;;;;;;5.62;3.02;;;;;;;3.29;81.31;101977.55;3394649;82;20956;-76
2021/12/18 02:10:29;;;;;;;7.78;2.85;;;;;;;3.29;81.27;102007.11;3312386;82;21027;-77
2021/12/18 02:25:26;;;;;;;11.18;2.65;;;;;;;3.26;81.36;102003.44;3420355;81;21007;-76
2021/12/18 02:30:21;;;;;;;9.88;2.87;;;;;;;3.17;81.26;102016.56;3293721;83;20976;-76
2021/12/18 02:35:29;;;;;;;8.53;3.25;;;;;;;3.12;81.25;101997.36;3477327;80;20897;-77
2021/12/18 02:45:35;;;;;;;7.70;2.95;;;;;;;2.93;81.15;101987.09;3470843;80;20930;-77
2021/12/18 02:50:26;;;;;;;8.95;2.72;;;;;;;2.84;81.17;101980.97;3479300;80;20907;-77
2021/12/18 02:55:17;;;;;;;10.23;3.58;;;;;;;2.76;81.20;102005.22;3467878;80;20951;-77
2021/12/18 03:00:10;;;;;;;7.45;4.05;;;;;;;2.64;81.21;102010.38;3431536;80;21690;-77
2021/12/18 03:05:06;;;;;;;7.90;3.50;;;;;;;2.56;81.39;102011.55;3461564;80;22157;-76
2021/12/18 03:21:09;;;;;;;7.42;3.08;;;;;;;2.57;81.53;102010.74;3430791;80;20981;-76
2021/12/18 03:25:27;;;;;;;7.08;3.45;;;;;;;2.54;81.42;102004.13;3467689;80;20974;-76
2021/12/18 03:30:17;;;;;;;5.20;2.80;;;;;;;2.53;81.46;101989.90;3543154;78;20920;-77
2021/12/18 03:35:10;;;;;;;6.50;3.37;;;;;;;2.54;81.33;101987.44;3520670;79;20907;-76
2021/12/18 03:40:05;;;;;;;5.67;2.70;;;;;;;2.53;81.36;101990.78;3484416;78;21038;-77
2021/12/18 03:44:57;;;;;;;8.93;2.92;;;;;;;2.56;81.43;102001.27;3477894;79;21093;-77
2021/12/18 03:49:48;;;;;;;13.10;4.22;;;;;;;2.54;81.24;101996.43;3485188;78;20857;-77
2021/12/18 03:54:39;;;;;;;6.70;2.83;;;;;;;2.54;81.21;101997.71;3528489;78;21437;-77
2021/12/18 03:59:30;;;;;;;8.20;2.60;;;;;;;2.54;81.29;102002.84;3497909;78;21177;-76
2021/12/18 04:04:21;;;;;;;8.80;3.35;;;;;;;2.56;81.27;102006.41;3532652;78;20939;-76
2021/12/18 04:09:13;;;;;;;4.65;2.60;;;;;;;2.57;81.18;102008.17;3512649;78;21018;-76
2021/12/18 04:14:04;;;;;;;11.80;3.98;;;;;;;2.59;81.05;102009.56;3541343;78;20904;-76
2021/12/18 04:18:56;;;;;;;10.28;3.22;;;;;;;2.60;81.09;102008.39;3523650;78;22136;-76
2021/12/18 04:23:47;;;;;;;7.40;2.50;;;;;;;2.64;81.08;102019.38;3484996;78;20963;-77
2021/12/18 04:28:38;;;;;;;4.72;3.08;;;;;;;2.67;81.07;102015.74;3462485;78;20991;-77
2021/12/18 04:33:29;;;;;;;6.33;2.37;;;;;;;2.70;81.16;102012.52;3521544;78;21039;-77
2021/12/18 04:38:20;;;;;;;6.17;2.80;;;;;;;2.73;81.00;102005.00;3490399;79;20966;-76
2021/12/18 04:43:12;;;;;;;9.85;2.27;;;;;;;2.74;81.00;101996.92;3482987;79;21277;-76
2021/12/18 04:48:04;;;;;;;8.90;2.60;;;;;;;2.74;80.88;101978.55;3453320;79;21011;-76
2021/12/18 04:52:55;;;;;;;7.95;3.58;;;;;;;2.76;80.95;101976.09;3473601;79;21461;-76
2021/12/18 04:57:46;;;;;;;9.00;3.08;;;;;;;2.76;80.85;101969.66;3431281;78;20999;-76
2021/12/18 05:02:41;;;;;;;8.73;3.02;;;;;;;2.74;80.89;101972.53;3461604;78;20950;-77
2021/12/18 05:07:31;;;;;;;8.05;4.10;;;;;;;2.73;80.88;101970.33;3454972;78;21853;-76
2021/12/18 05:12:22;;;;;;;9.63;4.17;;;;;;;2.73;80.92;101991.27;3476520;78;20932;-75
2021/12/18 05:17:13;;;;;;;10.48;4.75;;;;;;;2.71;80.94;101980.01;3477248;78;20952;-76
2021/12/18 05:22:05;;;;;;;6.65;3.37;;;;;;;2.70;80.99;101972.70;3451172;78;20968;-77
2021/12/18 05:26:57;;;;;;;8.13;4.37;;;;;;;2.69;81.06;101967.46;3517221;78;21145;-76
2021/12/18 05:31:50;;;;;;;10.08;4.75;;;;;;;2.65;81.11;101965.95;3495529;79;22008;-76
2021/12/18 05:41:51;;;;;;;9.95;4.15;;;;;;;2.62;81.19;101958.03;3473176;79;20963;-76
2021/12/18 05:46:40;;;;;;;8.08;4.50;;;;;;;2.63;81.39;101970.09;3484197;79;20976;-77
2021/12/18 05:51:32;;;;;;;15.72;7.12;;;;;;;2.65;81.52;101986.91;3493485;78;21008;-76
2021/12/18 05:56:24;;;;;;;15.05;6.30;;;;;;;2.66;81.58;101995.09;3460145;78;21147;-77
2021/12/18 06:01:15;;;;;;;7.10;4.33;;;;;;;2.65;81.71;101980.08;3483538;78;21793;-76
2021/12/18 06:06:07;;;;;;;10.55;4.45;;;;;;;2.66;81.61;101980.96;3541918;79;21465;-77
2021/12/18 06:11:04;;;;;;;8.63;4.85;;;;;;;2.64;81.63;101994.09;3481592;78;20936;-77
2021/12/18 06:15:51;;;;;;;9.98;4.90;;;;;;;2.65;81.79;101989.47;3444713;78;21437;-77
2021/12/18 06:20:42;;;;;;;6.78;5.12;;;;;;;2.69;81.86;101984.16;3476051;78;21864;-77
2021/12/18 06:25:33;;;;;;;9.85;5.45;;;;;;;2.73;81.88;101993.84;3520509;79;20905;-76
2021/12/18 06:30:25;;;;;;;11.83;5.90;;;;;;;2.73;81.80;101989.59;3435387;79;20947;-77
2021/12/18 06:35:16;;;;;;;10.28;5.12;;;;;;;2.73;81.72;101979.72;3532897;78;21445;-76
2021/12/18 06:40:08;;;;;;;8.28;5.30;;;;;;;2.75;81.63;101978.14;3544350;78;20943;-77
2021/12/18 06:44:59;;;;;;;9.23;5.25;;;;;;;2.75;81.69;101974.29;3543118;78;21957;-77
2021/12/18 06:49:50;;;;;;;7.45;4.80;;;;;;;2.76;81.69;101976.09;3497833;78;20991;-77
2021/12/18 06:54:41;;;;;;;8.25;5.30;;;;;;;2.79;81.73;101969.84;3525676;78;21467;-76
2021/12/18 06:59:32;;;;;;;9.98;4.92;;;;;;;2.80;81.65;101965.23;3548377;78;20881;-77
2021/12/18 07:04:24;;;;;;;10.13;5.15;;;;;;;2.81;81.64;101962.77;3526327;78;21014;-77
2021/12/18 07:09:16;;;;;;;8.90;4.70;;;;;;;2.81;81.63;101953.77;3471750;78;21026;-77
2021/12/18 07:14:07;;;;;;;10.13;4.28;;;;;;;2.81;81.55;101949.05;3465933;78;21051;-77
2021/12/18 07:18:58;;;;;;;9.60;4.12;;;;;;;2.81;81.55;101937.48;3549831;78;20955;-76
2021/12/18 07:23:49;;;;;;;6.37;3.85;;;;;;;2.84;81.58;101936.38;3474699;79;20967;-77
2021/12/18 07:28:41;;;;;;;9.33;4.37;;;;;;;2.86;81.47;101940.86;3491363;78;20913;-77
2021/12/18 07:33:32;;;;;;;7.25;3.98;;;;;;;2.85;81.41;101942.03;3513337;79;21467;-77
2021/12/18 07:38:23;;;;;;;8.38;3.70;;;;;;;2.85;81.55;101943.31;3461878;79;21011;-77
2021/12/18 07:43:15;;;;;;;9.58;3.87;;;;;;;2.85;81.40;101940.75;3523974;79;21472;-77
2021/12/18 07:48:06;;;;;;;8.03;5.00;;;;;;;2.84;81.53;101938.95;3500235;78;20994;-76
2021/12/18 07:52:58;;;;;;;11.43;5.97;;;;;;;2.88;81.63;101964.45;3481938;78;20971;-77
2021/12/18 07:57:51;;;;;;;8.13;6.58;;;;;;;2.88;81.62;101970.51;3482380;78;20959;-77
2021/12/18 08:02:42;;;;;;;13.65;6.90;;;;;;;2.86;81.59;101973.34;3502438;78;20987;-76
2021/12/18 08:07:34;;;;;;;8.48;5.75;;;;;;;2.85;81.62;101971.57;3472191;78;20927;-76
2021/12/18 08:12:25;;;;;;;14.20;7.00;;;;;;;2.86;81.60;101964.34;3522880;78;20921;-77
2021/12/18 08:17:16;;;;;;;14.27;7.70;;;;;;;2.87;81.57;101959.72;3461358;78;20992;-77
2021/12/18 08:22:07;;;;;;;11.10;8.15;;;;;;;2.88;81.36;101958.95;3521639;79;22019;-76
2021/12/18 08:26:59;;;;;;;13.62;9.10;;;;;;;2.85;81.52;101952.30;3510703;79;21357;-77
2021/12/18 08:31:57;;;;;;;16.62;10.45;;;;;;;2.89;81.64;101951.72;3568209;78;20977;-76
2021/12/18 08:36:48;;;;;;;14.90;10.50;;;;;;;2.92;81.79;101952.34;3491950;79;20975;-76
2021/12/18 08:41:42;;;;;;;12.70;8.95;;;;;;;2.93;81.63;101937.40;3482176;78;20936;-77
2021/12/18 08:46:35;;;;;;;14.13;10.00;;;;;;;2.89;81.65;101932.45;3489534;78;20975;-76
2021/12/18 08:51:26;;;;;;;14.47;10.65;;;;;;;2.86;81.68;101927.09;3489492;78;20955;-76
2021/12/18 08:56:17;;;;;;;21.00;10.78;;;;;;;2.86;81.72;101929.66;3527706;78;21206;-77
2021/12/18 09:01:08;;;;;;;15.50;11.38;;;;;;;2.86;81.72;101921.95;3534981;78;20960;-76
2021/12/18 09:05:59;;;;;;;22.25;12.85;;;;;;;2.93;81.77;101919.02;3530984;78;21074;-77
2021/12/18 09:10:50;;;;;;;24.37;15.38;;;;;;;2.95;81.76;101907.19;3523232;78;21128;-76
2021/12/18 09:15:42;;;;;;;22.45;14.85;;;;;;;2.93;81.92;101885.61;3473202;78;20955;-77
2021/12/18 09:20:33;;;;;;;26.33;14.25;;;;;;;2.89;81.99;101882.36;3451849;79;20918;-76
2021/12/18 09:25:24;;;;;;;34.20;18.70;;;;;;;2.85;82.08;101881.66;3472291;79;22373;-75
2021/12/18 09:30:15;;;;;;;37.17;16.73;;;;;;;2.85;82.16;101877.81;3468692;78;20963;-77
2021/12/18 09:35:11;;;;;;;37.80;17.87;;;;;;;2.84;82.25;101871.80;3568710;78;21131;-76
2021/12/18 09:40:06;;;;;;;34.10;17.23;;;;;;;2.86;82.44;101874.44;3502826;78;21030;-77
2021/12/18 09:44:58;;;;;;;29.42;16.82;;;;;;;2.91;82.48;101856.77;3513258;78;20994;-76
2021/12/18 09:49:50;;;;;;;33.05;16.62;;;;;;;2.91;82.46;101840.95;3494386;78;20951;-76
2021/12/18 09:54:41;;;;;;;31.62;18.35;;;;;;;2.92;82.54;101840.18;3539843;78;20951;-76
2021/12/18 09:59:32;;;;;;;39.05;22.15;;;;;;;2.99;82.58;101830.80;3503645;78;21316;-77
2021/12/18 10:04:33;;;;;;;34.15;20.10;;;;;;;3.07;82.47;101822.70;3550657;78;21465;-75
2021/12/18 10:09:29;;;;;;;40.75;19.65;;;;;;;3.16;82.65;101822.01;3525008;78;20986;-76
2021/12/18 10:14:37;;;;;;;29.52;17.77;;;;;;;3.22;82.56;101810.86;3536002;78;20900;-76
2021/12/18 10:19:34;;;;;;;38.38;20.35;;;;;;;3.18;82.53;101811.42;3509274;79;20922;-76
2021/12/18 10:24:27;;;;;;;27.40;17.03;;;;;;;3.04;82.65;101802.81;3543127;79;21778;-75
2021/12/18 10:29:30;;;;;;;25.57;15.43;;;;;;;3.00;82.80;101799.56;3483294;78;21073;-75
2021/12/18 10:34:27;;;;;;;24.75;15.85;;;;;;;2.96;82.62;101785.63;3533350;78;20994;-75
2021/12/18 10:39:19;;;;;;;23.50;16.90;;;;;;;2.99;83.02;101765.28;3548361;78;20963;-75
2021/12/18 10:44:13;;;;;;;22.67;15.98;;;;;;;2.99;82.96;101775.97;3479640;78;21520;-75
2021/12/18 10:49:12;;;;;;;23.27;16.02;;;;;;;2.95;82.98;101767.54;3518414;78;21323;-75
2021/12/18 10:54:11;;;;;;;25.15;16.57;;;;;;;2.91;83.10;101753.61;3522123;78;22044;-76
2021/12/18 10:59:06;;;;;;;27.37;18.55;;;;;;;2.92;83.20;101743.84;3530894;78;20936;-75
2021/12/18 11:03:58;;;;;;;25.57;17.90;;;;;;;2.90;83.29;101733.88;3515956;78;20981;-75
2021/12/18 11:09:11;;;;;;;32.38;19.77;;;;;;;2.85;83.38;101722.41;3554659;79;20936;-75
2021/12/18 11:14:16;;;;;;;28.95;19.10;;;;;;;2.84;83.47;101724.47;3502053;78;21461;-75
2021/12/18 11:19:13;;;;;;;30.52;19.02;;;;;;;2.82;83.40;101712.80;3518435;78;20995;-76
2021/12/18 11:24:07;;;;;;;30.97;20.45;;;;;;;2.83;83.63;101688.03;3508119;78;20967;-75
2021/12/18 11:29:01;;;;;;;31.25;19.95;;;;;;;2.78;83.53;101681.30;3539199;78;20911;-75
2021/12/18 11:33:54;;;;;;;28.52;19.30;;;;;;;2.79;83.74;101678.33;3506657;78;21002;-75
2021/12/18 11:38:48;;;;;;;36.45;22.85;;;;;;;2.78;83.75;101675.29;3495321;78;21319;-76
2021/12/18 11:43:44;;;;;;;34.53;21.82;;;;;;;2.73;83.70;101673.70;3477611;78;21545;-75
2021/12/18 11:48:56;;;;;;;34.45;23.42;;;;;;;2.67;83.83;101670.34;3468880;79;21009;-76
2021/12/18 11:53:47;;;;;;;34.43;21.10;;;;;;;2.65;83.99;101665.52;3505410;79;21564;-76
2021/12/18 11:58:45;;;;;;;30.25;20.68;;;;;;;2.61;83.83;101667.40;3470389;79;20972;-75
2021/12/18 12:03:54;;;;;;;34.03;20.00;;;;;;;2.57;83.95;101661.55;3486964;78;21182;-76
2021/12/18 12:08:49;;;;;;;34.53;21.90;;;;;;;2.56;83.95;101655.94;3465005;78;20924;-76
2021/12/18 12:14:06;;;;;;;32.95;23.32;;;;;;;2.51;83.99;101643.20;3500849;78;20932;-75
2021/12/18 12:19:06;;;;;;;28.77;19.32;;;;;;;2.49;84.29;101630.66;3509923;78;21422;-76
2021/12/18 12:24:02;;;;;;;30.27;20.00;;;;;;;2.48;84.27;101614.75;3501405;78;20983;-75
2021/12/18 12:28:53;;;;;;;37.00;24.23;;;;;;;2.48;84.38;101605.77;3453343;79;20916;-75
2021/12/18 12:33:45;;;;;;;30.60;20.77;;;;;;;2.46;84.48;101600.94;3493015;79;20979;-76
2021/12/18 12:39:00;;;;;;;35.05;22.05;;;;;;;2.48;84.46;101595.50;3452707;79;21484;-76
2021/12/18 12:43:52;;;;;;;30.25;18.57;;;;;;;2.48;84.56;101599.35;3496459;78;20959;-76
2021/12/18 12:49:11;;;;;;;35.98;22.98;;;;;;;2.46;84.65;101583.84;3491329;78;20951;-76
2021/12/18 12:54:02;;;;;;;36.75;22.45;;;;;;;2.46;84.63;101585.53;3519817;78;21094;-76
2021/12/18 12:59:23;;;;;;;36.23;22.35;;;;;;;2.47;84.85;101587.33;3531712;78;20947;-76
2021/12/18 13:04:18;;;;;;;42.95;25.08;;;;;;;2.47;84.78;101584.76;3467712;78;20925;-77
2021/12/18 13:09:09;;;;;;;39.60;22.15;;;;;;;2.45;84.84;101576.05;3491590;79;21467;-76
2021/12/18 13:14:00;;;;;;;31.33;23.07;;;;;;;2.48;84.87;101564.70;3431162;79;20944;-77
2021/12/18 13:18:57;;;;;;;37.95;23.65;;;;;;;2.49;84.95;101566.48;3460252;79;21130;-76
2021/12/18 13:24:02;;;;;;;40.50;23.67;;;;;;;2.45;84.85;101569.63;3499475;79;21240;-76
2021/12/18 13:29:10;;;;;;;36.95;23.32;;;;;;;2.44;84.99;101562.33;3492527;78;21489;-76
2021/12/18 13:34:09;;;;;;;41.85;23.50;;;;;;;2.43;85.05;101555.81;3456979;80;21436;-76
2021/12/18 13:39:08;;;;;;;33.15;21.80;;;;;;;2.41;85.23;101551.86;3456844;80;21926;-76
2021/12/18 13:43:59;;;;;;;30.50;18.80;;;;;;;2.38;85.18;101550.78;3472703;80;21224;-76
2021/12/18 13:48:50;;;;;;;26.30;19.05;;;;;;;2.38;85.31;101550.78;3436040;80;21388;-76
2021/12/18 13:53:58;;;;;;;25.12;16.50;;;;;;;2.39;85.43;101552.57;3460327;80;21412;-77
2021/12/18 13:58:50;;;;;;;26.75;17.65;;;;;;;2.40;85.50;101541.53;3381874;80;20997;-76
2021/12/18 14:03:51;;;;;;;27.73;18.98;;;;;;;2.41;85.54;101533.02;3440836;80;21016;-76
2021/12/18 14:08:47;;;;;;;31.85;21.42;;;;;;;2.40;85.48;101533.83;3455048;80;21161;-76
2021/12/18 14:13:49;;;;;;;37.98;21.97;;;;;;;2.38;85.66;101509.34;3430736;80;20946;-76
2021/12/18 14:18:49;;;;;;;28.98;19.25;;;;;;;2.38;85.65;101500.73;3483745;80;21417;-76
2021/12/18 14:23:39;;;;;;;37.58;21.27;;;;;;;2.38;85.78;101494.31;3390753;80;21053;-77
2021/12/18 14:28:34;;;;;;;31.77;21.85;;;;;;;2.37;85.85;101492.56;3417254;80;21010;-76
2021/12/18 14:33:25;;;;;;;32.50;20.32;;;;;;;2.39;85.85;101483.27;3528484;78;21090;-77
2021/12/18 14:38:18;;;;;;;33.38;19.17;;;;;;;2.38;85.93;101470.84;3557640;78;20995;-75
2021/12/18 14:43:17;;;;;;;48.17;23.98;;;;;;;2.38;85.95;101463.52;3490252;79;20951;-76
2021/12/18 14:48:07;;;;;;;36.70;20.37;;;;;;;2.38;86.05;101450.68;3471494;79;20994;-77
2021/12/18 14:53:14;;;;;;;49.55;24.25;;;;;;;2.39;86.16;101446.93;3495929;79;20955;-76
2021/12/18 14:58:09;;;;;;;;;;;;;;;2.40;86.15;101450.00;3502602;79;21553;-76
2021/12/18 15:03:05;;;;;;;56.13;26.62;;;;;;;2.43;86.30;101448.01;3560518;78;20235;-76
2021/12/18 15:08:05;;;;;;;52.93;22.37;;;;;;;2.39;86.26;101444.77;3491734;78;20959;-76
2021/12/18 15:12:56;;;;;;;51.70;26.48;;;;;;;2.41;86.33;101431.63;3511930;78;21002;-76
2021/12/18 15:17:51;;;;;;;54.77;25.70;;;;;;;2.42;86.47;101428.28;3500568;78;21452;-76
2021/12/18 15:22:42;;;;;;;69.47;29.45;;;;;;;2.44;86.51;101404.88;3527372;78;21069;-76
2021/12/18 15:27:33;;;;;;;52.37;27.80;;;;;;;2.47;86.52;101405.95;3523985;78;20939;-75
2021/12/18 15:32:25;;;;;;;64.30;31.48;;;;;;;2.46;86.48;101382.75;3452609;78;21707;-76
2021/12/18 15:37:16;;;;;;;62.03;30.00;;;;;;;2.49;86.59;101366.26;3578714;78;20943;-75
2021/12/18 15:42:10;;;;;;;69.47;31.10;;;;;;;2.52;86.61;101360.41;3456862;79;21576;-76
2021/12/18 15:47:02;;;;;;;62.98;30.08;;;;;;;2.53;86.56;101346.80;3488819;78;21431;-75
2021/12/18 15:51:53;;;;;;;63.20;29.25;;;;;;;2.55;86.66;101361.48;3512747;78;20928;-75
2021/12/18 15:56:45;;;;;;;66.53;32.48;;;;;;;2.57;86.74;101357.72;3494348;78;20928;-75
2021/12/18 16:01:39;;;;;;;62.15;27.87;;;;;;;2.57;86.64;101343.19;3422796;78;20959;-75
2021/12/18 16:06:30;;;;;;;58.95;28.77;;;;;;;2.57;86.90;101347.05;3478666;78;20951;-75
2021/12/18 16:11:22;;;;;;;54.53;28.47;;;;;;;2.58;86.79;101353.97;3495574;78;21256;-75
2021/12/18 16:16:13;;;;;;;56.10;28.12;;;;;;;2.62;86.88;101363.61;3440665;78;20939;-75
2021/12/18 16:21:07;;;;;;;48.05;25.57;;;;;;;2.65;86.84;101344.95;3467476;78;20939;-75
2021/12/18 16:25:58;;;;;;;50.78;29.55;;;;;;;2.66;87.08;101342.48;3483858;78;20975;-75
2021/12/18 16:30:51;;;;;;;61.37;27.93;;;;;;;2.69;87.00;101316.49;3468124;78;20915;-75
2021/12/18 16:35:42;;;;;;;51.25;29.10;;;;;;;2.70;86.97;101309.25;3500137;79;21480;-75
2021/12/18 16:40:39;;;;;;;39.55;20.72;;;;;;;2.72;87.01;101321.78;3460450;79;20991;-75
2021/12/18 16:45:30;;;;;;;47.53;23.57;;;;;;;2.74;87.11;101318.94;3521051;79;21489;-75
2021/12/18 16:50:21;;;;;;;48.83;26.27;;;;;;;2.75;87.20;101327.11;3460613;78;20963;-75
2021/12/18 16:55:13;;;;;;;38.20;22.17;;;;;;;2.75;87.11;101307.84;3533584;78;20927;-75
2021/12/18 17:00:09;;;;;;;44.70;25.68;;;;;;;2.77;87.22;101292.13;3494951;78;21532;-75
2021/12/18 17:05:00;;;;;;;47.65;27.30;;;;;;;2.80;87.26;101276.49;3476426;78;20964;-75
2021/12/18 17:09:51;;;;;;;44.13;24.85;;;;;;;2.82;87.23;101277.87;3493135;78;21265;-76
2021/12/18 17:14:42;;;;;;;41.90;27.77;;;;;;;2.82;87.29;101271.45;3441958;80;21025;-74
2021/12/18 17:19:34;;;;;;;44.20;27.55;;;;;;;2.85;87.35;101270.34;3375729;81;20961;-75
2021/12/18 17:24:26;;;;;;;39.85;24.05;;;;;;;2.87;87.36;101261.05;3398745;80;21507;-76
2021/12/18 17:29:17;;;;;;;40.90;24.92;;;;;;;2.89;87.39;101259.84;3465505;80;20970;-76
2021/12/18 17:34:08;;;;;;;41.65;25.12;;;;;;;2.89;87.46;101246.59;3311841;82;20968;-76
2021/12/18 17:39:01;;;;;;;42.70;25.23;;;;;;;2.92;87.44;101233.94;3380017;82;21507;-76
2021/12/18 17:43:53;;;;;;;39.65;24.40;;;;;;;2.92;87.51;101213.39;3359218;82;21513;-76
2021/12/18 17:48:45;;;;;;;40.65;23.60;;;;;;;2.94;87.56;101216.92;3350951;82;21161;-76
2021/12/18 17:53:39;;;;;;;38.80;23.67;;;;;;;2.95;87.67;101213.56;3355251;82;20967;-76
2021/12/18 17:58:29;;;;;;;32.17;19.90;;;;;;;2.97;87.60;101193.98;3354222;82;20936;-76
2021/12/18 18:03:22;;;;;;;33.33;21.33;;;;;;;2.99;87.68;101200.08;3316147;82;20938;-75
2021/12/18 18:08:15;;;;;;;37.15;24.98;;;;;;;3.01;87.73;101195.91;3293304;82;20939;-76
2021/12/18 18:13:06;;;;;;;36.83;22.07;;;;;;;3.03;87.74;101194.30;3316891;82;21026;-76
2021/12/18 18:17:57;;;;;;;29.30;17.98;;;;;;;3.07;87.80;101187.65;3332273;82;20967;-75
2021/12/18 18:22:48;;;;;;;32.83;20.65;;;;;;;3.11;87.85;101197.28;3366185;81;20983;-77
2021/12/18 18:27:40;;;;;;;33.25;20.92;;;;;;;3.12;87.88;101181.48;3361666;83;20995;-75
2021/12/18 18:32:33;;;;;;;34.40;22.82;;;;;;;3.15;87.87;101174.83;3388616;81;21003;-76
2021/12/18 18:37:24;;;;;;;31.60;21.25;;;;;;;3.17;87.87;101176.20;3369191;82;22027;-76
2021/12/18 18:42:16;;;;;;;34.98;21.40;;;;;;;3.17;87.94;101184.79;3468809;80;20928;-75
2021/12/18 18:47:13;;;;;;;33.60;21.73;;;;;;;3.19;88.02;101173.31;3440113;80;21405;-75
2021/12/18 18:52:01;;;;;;;38.33;22.42;;;;;;;3.21;88.16;101170.42;3416687;82;21002;-76
2021/12/18 18:56:52;;;;;;;35.33;21.75;;;;;;;3.22;88.21;101149.08;3354495;81;20912;-76
2021/12/18 19:01:43;;;;;;;33.38;19.82;;;;;;;3.23;88.37;101143.11;3406009;81;21512;-76
2021/12/18 19:06:35;;;;;;;35.68;22.50;;;;;;;3.24;88.35;101131.64;3435954;80;21003;-76
2021/12/18 19:11:26;;;;;;;32.42;19.90;;;;;;;3.28;88.41;101126.26;3453428;80;20962;-76
2021/12/18 19:16:19;;;;;;;32.80;20.82;;;;;;;3.30;88.45;101135.34;3452869;80;20967;-76
2021/12/18 19:21:13;;;;;;;34.80;22.30;;;;;;;3.33;88.47;101108.52;3386168;81;20939;-77
2021/12/18 19:26:04;;;;;;;40.88;22.93;;;;;;;3.36;88.47;101101.86;3527282;79;21154;-76
2021/12/18 19:30:57;;;;;;;32.30;18.67;;;;;;;3.37;88.53;101093.32;3498645;79;20932;-76
2021/12/18 19:35:48;;;;;;;33.85;21.17;;;;;;;3.38;88.69;101089.96;3437498;80;20954;-76
2021/12/18 19:40:39;;;;;;;38.53;23.02;;;;;;;3.40;88.67;101078.06;3429350;79;21526;-76
2021/12/18 19:45:31;;;;;;;36.98;21.70;;;;;;;3.43;88.70;101082.47;3436351;80;20947;-76
2021/12/18 19:50:24;;;;;;;38.25;21.82;;;;;;;3.43;88.75;101061.52;3483108;80;22153;-76
2021/12/18 19:55:17;;;;;;;38.73;22.75;;;;;;;3.46;88.83;101053.07;3447402;80;20962;-77
2021/12/18 20:00:12;;;;;;;37.85;23.73;;;;;;;3.48;88.83;101033.87;3501295;80;20951;-76
2021/12/18 20:05:03;;;;;;;38.20;23.50;;;;;;;3.49;88.84;101023.67;3434765;79;20974;-77
2021/12/18 20:09:55;;;;;;;37.45;22.65;;;;;;;3.51;88.82;101018.61;3464046;80;20912;-76
2021/12/18 20:14:46;;;;;;;42.93;26.02;;;;;;;3.52;88.89;101010.08;3473132;80;21104;-76
2021/12/18 20:19:38;;;;;;;36.77;22.80;;;;;;;3.52;88.99;101002.36;3482763;79;20962;-76
2021/12/18 20:24:29;;;;;;;34.35;20.50;;;;;;;3.53;89.06;101001.57;3448594;80;21021;-76
2021/12/18 20:29:22;;;;;;;32.30;20.90;;;;;;;3.55;89.09;100999.95;3449536;80;20930;-77
2021/12/18 20:34:14;;;;;;;40.67;22.50;;;;;;;3.56;89.21;100993.98;3447156;79;20962;-76
2021/12/18 20:39:09;;;;;;;31.25;20.23;;;;;;;3.57;89.18;100982.50;3534694;78;21280;-76
2021/12/18 20:44:00;;;;;;;38.73;24.02;;;;;;;3.59;89.23;100980.00;3523410;78;20977;-76
2021/12/18 20:48:54;;;;;;;41.13;24.77;;;;;;;3.62;89.19;100990.03;3532736;78;21445;-76
2021/12/18 20:53:46;;;;;;;32.63;21.95;;;;;;;3.64;89.24;100992.69;3537742;78;20986;-77
2021/12/18 20:58:38;;;;;;;35.17;20.00;;;;;;;3.66;89.35;100980.78;3520308;78;20904;-76
2021/12/18 21:03:30;;;;;;;27.55;17.42;;;;;;;3.68;89.32;100966.72;3537474;78;21076;-77
2021/12/18 21:08:21;;;;;;;29.23;18.95;;;;;;;3.68;89.43;100965.02;3524597;78;21500;-77
2021/12/18 21:13:14;;;;;;;35.10;20.32;;;;;;;3.69;89.42;100962.94;3485626;79;21225;-77
2021/12/18 21:18:07;;;;;;;30.95;19.80;;;;;;;3.71;89.43;100947.59;3519679;79;21093;-77
2021/12/18 21:22:59;;;;;;;33.20;20.57;;;;;;;3.71;89.57;100937.30;3487349;79;38956;-77
2021/12/18 21:27:52;;;;;;;29.07;19.67;;;;;;;3.74;89.49;100942.19;3537252;79;21560;-78
2021/12/18 21:32:45;;;;;;;35.98;22.85;;;;;;;3.76;89.56;100934.14;3527526;79;21441;-77
2021/12/18 21:37:36;;;;;;;34.08;19.75;;;;;;;3.77;89.56;100925.63;3529916;78;21604;-76
2021/12/18 21:42:28;;;;;;;31.65;19.27;;;;;;;3.78;89.55;100917.09;3523442;78;21022;-76
2021/12/18 21:47:19;;;;;;;34.25;18.65;;;;;;;3.80;89.61;100916.75;3465689;78;20922;-77
2021/12/18 21:52:12;;;;;;;31.80;20.02;;;;;;;3.82;89.64;100924.13;3476754;78;21231;-77
2021/12/18 21:57:05;;;;;;;25.70;17.35;;;;;;;3.82;89.69;100918.98;3503466;78;21058;-76
2021/12/18 22:01:56;;;;;;;33.10;20.37;;;;;;;3.85;89.73;100908.39;3478452;78;21444;-77
2021/12/18 22:06:47;;;;;;;24.70;16.32;;;;;;;3.84;89.74;100892.47;3477420;78;20948;-76
2021/12/18 22:11:46;;;;;;;29.35;16.55;;;;;;;3.86;89.78;100876.70;3536918;78;21382;-77
2021/12/18 22:16:37;;;;;;;28.32;17.95;;;;;;;3.85;89.80;100884.83;3463326;79;21232;-76
2021/12/18 22:21:28;;;;;;;26.73;16.85;;;;;;;3.86;89.80;100871.14;3520680;78;20991;-76
2021/12/18 22:26:20;;;;;;;20.55;14.60;;;;;;;3.87;89.77;100857.89;3512455;79;20963;-76
2021/12/18 22:31:11;;;;;;;21.42;14.80;;;;;;;3.88;89.83;100840.34;3477695;78;20987;-77
2021/12/18 22:36:03;;;;;;;20.70;14.85;;;;;;;3.87;89.85;100826.61;3504903;78;20927;-76
2021/12/18 22:40:54;;;;;;;17.55;13.80;;;;;;;3.87;89.82;100815.45;3536225;78;21188;-77
2021/12/18 22:45:45;;;;;;;17.65;11.65;;;;;;;3.87;89.79;100810.30;3554712;78;21003;-77
2021/12/18 22:50:38;;;;;;;16.85;11.83;;;;;;;3.88;89.70;100804.33;3561629;78;20939;-77
2021/12/18 22:55:30;;;;;;;17.02;11.57;;;;;;;3.89;89.67;100794.53;3502373;78;20968;-77
2021/12/18 23:00:38;;;;;;;19.02;13.32;;;;;;;3.91;89.71;100801.91;3503026;78;21532;-78
2021/12/18 23:05:29;;;;;;;22.22;14.95;;;;;;;3.90;89.68;100799.75;3564892;78;21519;-77
2021/12/18 23:10:21;;;;;;;18.25;15.03;;;;;;;3.92;89.67;100794.68;3549695;78;21292;-78
2021/12/18 23:15:29;;;;;;;19.87;14.30;;;;;;;3.92;89.61;100780.53;3529838;79;20999;-78
2021/12/18 23:25:10;;;;;;;15.00;12.28;;;;;;;3.91;89.73;100751.75;3451533;78;20991;-76
2021/12/18 23:30:05;;;;;;;16.62;11.97;;;;;;;3.89;89.60;100743.09;3514380;78;21197;-78